Terminal Aerodrome Forecast
Issued by NWS Charleston, WV

Current Version | Previous Version | Graphics & Text | Print | Product List | Glossary On
Versions: 1 2 3 4 5 6 7 8 9 10 11 12 13 14 15 16 17 18 19 20 21 22 23 24
000
FTUS41 KRLX 251100
TAFPKB
TAF
KPKB 251121Z 2512/2612 19005KT 5SM BR OVC035
     FM251300 19005KT P6SM BKN150
     FM251700 VRB03KT 6SM -RA OVC040
     FM251900 VRB03KT P6SM OVC035
     FM252200 00000KT 6SM -RA OVC050
     FM260200 VRB03KT 5SM -RA OVC025
     FM260600 VRB03KT 2SM -RA BR OVC010
     FM260800 02004KT 1SM -RASN BR OVC008
     FM260900 VRB03KT 1/2SM SN FG OVC004=

USA.gov is the U.S. government's official web portal to all federal, state and local government web resources and services.